Time;durP1;ratioP1;P1;durP2;ratioP2;P2;SDS_P1;SDS_P2;PMS_P1;PMS_P2;Temp;Humidity;BMP_temperature;BMP_pressure;BME280_temperature;BME280_humidity;BME280_pressure;Samples;Min_cycle;Max_cycle;Signal;HPM_P1;HPM_P2
2021/12/09 00:01:40;;;;;;;4.72;1.83;;;;;;;18.67;45.05;100060.53;5054724;28;20036;-62
2021/12/09 00:04:09;;;;;;;6.13;1.67;;;;;;;18.60;44.35;100059.50;5070825;28;20506;-62
2021/12/09 00:06:36;;;;;;;4.75;1.55;;;;;;;18.60;44.81;100063.00;5053668;28;20435;-62
2021/12/09 00:09:05;;;;;;;6.82;1.95;;;;;;;18.62;44.28;100068.16;5070863;28;20063;-63
2021/12/09 00:11:34;;;;;;;6.18;1.63;;;;;;;18.63;44.64;100067.16;5071046;28;20044;-62
2021/12/09 00:14:00;;;;;;;8.45;1.90;;;;;;;18.58;45.13;100067.63;5053703;28;20067;-63
2021/12/09 00:16:25;;;;;;;4.65;1.80;;;;;;;18.57;44.64;100070.44;5070754;28;20040;-62
2021/12/09 00:18:50;;;;;;;5.57;1.60;;;;;;;18.53;45.17;100061.97;5071143;28;20139;-62
2021/12/09 00:21:16;;;;;;;5.60;1.80;;;;;;;18.53;44.98;100061.16;5070206;28;20043;-62
2021/12/09 00:23:41;;;;;;;4.57;1.70;;;;;;;18.54;44.74;100068.13;5071006;28;20063;-63
2021/12/09 00:26:07;;;;;;;4.90;1.48;;;;;;;18.53;44.79;100069.13;5070486;28;20041;-63
2021/12/09 00:28:32;;;;;;;4.57;1.70;;;;;;;18.54;44.67;100071.59;5053188;28;20063;-62
2021/12/09 00:30:58;;;;;;;5.15;1.80;;;;;;;18.52;45.01;100065.63;5052741;28;20119;-62
2021/12/09 00:33:23;;;;;;;5.80;1.77;;;;;;;18.49;44.21;100063.28;5070347;28;20048;-62
2021/12/09 00:35:55;;;;;;;6.45;1.88;;;;;;;18.51;44.79;100061.28;5019765;28;20125;-62
2021/12/09 00:38:32;;;;;;;5.68;1.70;;;;;;;18.46;44.62;100064.44;5070582;28;20048;-62
2021/12/09 00:40:58;;;;;;;5.32;1.60;;;;;;;18.46;44.46;100068.91;5054557;28;20542;-62
2021/12/09 00:43:23;;;;;;;4.78;1.75;;;;;;;18.45;44.21;100067.22;5070486;28;20079;-63
2021/12/09 00:45:49;;;;;;;5.60;1.52;;;;;;;18.39;44.52;100067.84;5070815;28;20048;-62
2021/12/09 00:48:14;;;;;;;6.50;1.67;;;;;;;18.39;44.86;100067.84;5070269;28;20055;-62
2021/12/09 00:50:40;;;;;;;4.60;1.77;;;;;;;18.38;44.17;100077.66;5070072;28;20051;-62
2021/12/09 00:53:06;;;;;;;5.65;1.80;;;;;;;18.38;44.80;100076.81;5035744;28;20044;-64
2021/12/09 00:55:31;;;;;;;5.35;1.65;;;;;;;18.32;44.69;100074.78;5052626;28;20635;-62
2021/12/09 00:57:56;;;;;;;4.88;1.90;;;;;;;18.31;44.68;100078.44;5070702;28;20385;-62
2021/12/09 01:00:23;;;;;;;6.13;1.92;;;;;;;18.26;44.44;100074.41;5070139;28;20067;-62
2021/12/09 01:02:48;;;;;;;4.25;1.60;;;;;;;18.30;44.23;100080.28;5070018;28;20072;-62
2021/12/09 01:05:14;;;;;;;5.47;1.80;;;;;;;18.26;44.52;100073.56;5050759;28;20048;-62
2021/12/09 01:07:39;;;;;;;5.78;1.95;;;;;;;18.20;44.91;100074.19;5052731;28;20036;-62
2021/12/09 01:10:06;;;;;;;7.07;1.70;;;;;;;18.25;44.70;100079.88;5052116;28;20497;-63
2021/12/09 01:12:32;;;;;;;6.35;1.95;;;;;;;18.18;44.43;100077.03;5035247;28;20040;-62
2021/12/09 01:14:57;;;;;;;4.68;1.70;;;;;;;18.17;44.84;100085.97;5052469;28;20040;-63
2021/12/09 01:17:23;;;;;;;5.22;1.73;;;;;;;18.17;44.38;100082.47;5069708;28;20683;-62
2021/12/09 01:19:48;;;;;;;6.75;1.73;;;;;;;18.15;44.63;100077.34;5070289;28;20028;-62
2021/12/09 01:22:14;;;;;;;4.68;1.70;;;;;;;18.15;44.47;100076.50;5068787;28;20144;-62
2021/12/09 01:24:39;;;;;;;5.30;1.85;;;;;;;18.14;44.33;100075.66;5052047;28;20115;-63
2021/12/09 01:27:05;;;;;;;5.97;1.90;;;;;;;18.09;44.40;100083.25;5069595;28;20056;-63
2021/12/09 01:29:37;;;;;;;5.50;1.65;;;;;;;18.05;44.78;100092.53;5069968;28;20044;-62
2021/12/09 01:32:06;;;;;;;5.75;1.90;;;;;;;18.03;44.66;100094.50;5068947;28;20507;-62
2021/12/09 01:34:34;;;;;;;7.00;2.03;;;;;;;18.06;44.39;100094.19;5052273;28;20033;-63
2021/12/09 01:36:59;;;;;;;5.22;1.80;;;;;;;18.06;44.05;100088.03;5052027;28;20496;-63
2021/12/09 01:39:27;;;;;;;4.07;1.60;;;;;;;18.06;44.65;100096.00;5051380;28;20040;-63
2021/12/09 01:41:53;;;;;;;5.10;1.50;;;;;;;18.03;44.58;100081.22;5051875;28;20066;-62
2021/12/09 01:44:18;;;;;;;4.85;1.85;;;;;;;18.07;44.64;100082.56;5069343;28;20079;-62
2021/12/09 01:46:44;;;;;;;6.90;2.03;;;;;;;18.04;44.58;100093.50;5069579;28;20623;-62
2021/12/09 01:49:09;;;;;;;5.72;1.67;;;;;;;18.04;44.63;100086.34;5051304;28;20041;-62
2021/12/09 01:51:35;;;;;;;5.20;1.80;;;;;;;18.01;44.77;100089.31;5068987;28;20047;-62
2021/12/09 01:54:00;;;;;;;5.70;1.70;;;;;;;17.99;44.26;100093.16;5051853;28;20064;-62
2021/12/09 01:56:26;;;;;;;6.43;1.77;;;;;;;17.99;44.37;100101.94;5051618;28;20045;-62
2021/12/09 01:58:54;;;;;;;6.40;1.65;;;;;;;17.97;44.63;100105.72;5069465;28;20112;-63
2021/12/09 02:01:20;;;;;;;6.95;1.90;;;;;;;17.91;44.30;100099.19;5051419;28;20029;-62
2021/12/09 02:03:45;;;;;;;5.65;1.63;;;;;;;17.89;44.40;100098.50;5068647;28;20393;-62
2021/12/09 02:06:11;;;;;;;5.40;1.80;;;;;;;17.91;44.51;100093.88;5050888;28;20045;-63
2021/12/09 02:08:36;;;;;;;4.95;1.80;;;;;;;17.93;44.56;100088.44;5069101;28;20060;-62
2021/12/09 02:11:02;;;;;;;7.88;1.88;;;;;;;17.91;44.07;100099.19;5051057;28;20414;-63
2021/12/09 02:13:28;;;;;;;4.95;1.70;;;;;;;17.93;44.23;100094.59;5050786;28;20495;-63
2021/12/09 02:15:55;;;;;;;5.88;1.88;;;;;;;17.88;44.41;100080.94;5050974;28;20071;-62
2021/12/09 02:18:21;;;;;;;4.00;1.38;;;;;;;17.89;44.49;100082.59;5058468;28;20076;-62
2021/12/09 02:20:47;;;;;;;4.97;1.70;;;;;;;17.84;44.91;100081.41;5048921;28;20090;-62
2021/12/09 02:23:16;;;;;;;5.85;2.15;;;;;;;17.84;43.95;100076.09;5058683;28;20040;-63
2021/12/09 02:25:44;;;;;;;6.32;2.05;;;;;;;17.83;43.92;100077.06;5051554;28;20033;-62
2021/12/09 02:28:11;;;;;;;8.18;2.10;;;;;;;17.78;44.49;100069.56;5034615;28;20068;-63
2021/12/09 02:30:37;;;;;;;5.38;1.52;;;;;;;17.80;44.84;100071.09;5068367;28;20044;-62
2021/12/09 02:33:02;;;;;;;5.57;2.00;;;;;;;17.78;44.40;100075.72;5068442;28;20129;-62
2021/12/09 02:35:27;;;;;;;5.85;1.77;;;;;;;17.76;44.10;100072.31;5068989;28;20045;-62
2021/12/09 02:37:53;;;;;;;6.40;1.70;;;;;;;17.74;44.05;100078.81;5042384;28;20092;-62
2021/12/09 02:40:18;;;;;;;7.70;2.03;;;;;;;17.77;44.19;100083.84;5030585;28;20033;-62
2021/12/09 02:42:44;;;;;;;5.35;1.73;;;;;;;17.73;44.22;100079.75;5048530;28;20084;-62
2021/12/09 02:45:09;;;;;;;5.43;1.67;;;;;;;17.69;44.27;100081.91;5048064;28;20137;-63
2021/12/09 02:47:35;;;;;;;5.70;1.70;;;;;;;17.69;44.44;100084.53;5054703;28;20033;-62
2021/12/09 02:50:01;;;;;;;6.10;2.10;;;;;;;17.67;44.10;100078.53;5068393;28;20086;-62
2021/12/09 02:52:26;;;;;;;4.80;1.60;;;;;;;17.68;44.47;100080.22;5050273;28;20040;-62
2021/12/09 02:54:52;;;;;;;6.55;2.05;;;;;;;17.67;44.01;100078.53;5068199;28;20036;-62
2021/12/09 02:57:17;;;;;;;5.85;1.75;;;;;;;17.63;44.40;100077.19;5067546;28;20032;-62
2021/12/09 02:59:43;;;;;;;5.47;1.92;;;;;;;17.63;44.37;100081.66;5068298;28;20109;-63
2021/12/09 03:02:10;;;;;;;6.03;2.00;;;;;;;17.62;44.32;100086.16;5049580;28;20041;-62
2021/12/09 03:04:47;;;;;;;7.45;1.90;;;;;;;17.61;44.11;100083.63;5068179;28;20085;-62
2021/12/09 03:07:15;;;;;;;5.55;1.90;;;;;;;17.63;44.19;100082.50;5049765;28;20044;-62
2021/12/09 03:09:48;;;;;;;7.07;2.45;;;;;;;17.57;44.04;100086.59;5050087;28;20047;-62
2021/12/09 03:12:21;;;;;;;6.15;1.95;;;;;;;17.57;44.12;100073.31;5067722;28;20048;-62
2021/12/09 03:14:47;;;;;;;5.43;2.03;;;;;;;17.55;44.66;100077.13;5050160;28;20029;-62
2021/12/09 03:17:12;;;;;;;5.65;2.03;;;;;;;17.53;44.30;100079.09;5049236;28;20510;-63
2021/12/09 03:19:38;;;;;;;5.72;1.73;;;;;;;17.55;44.21;100080.63;5064972;28;20042;-63
2021/12/09 03:22:03;;;;;;;4.65;1.60;;;;;;;17.53;44.26;100071.97;5067538;28;20064;-63
2021/12/09 03:24:29;;;;;;;5.75;1.83;;;;;;;17.55;44.35;100074.47;5049911;28;20036;-62
2021/12/09 03:26:56;;;;;;;8.77;1.88;;;;;;;17.51;44.20;100070.44;5050143;28;20558;-63
2021/12/09 03:29:21;;;;;;;5.40;2.05;;;;;;;17.48;44.20;100071.56;5066432;28;20041;-62
2021/12/09 03:31:49;;;;;;;5.80;1.70;;;;;;;17.51;44.03;100065.13;5033322;28;20439;-62
2021/12/09 03:34:14;;;;;;;4.95;1.55;;;;;;;17.49;44.43;100080.38;5049595;28;20048;-62
2021/12/09 03:36:40;;;;;;;5.05;1.90;;;;;;;17.45;44.15;100071.88;5049857;28;20037;-62
2021/12/09 03:39:08;;;;;;;6.55;1.77;;;;;;;17.46;44.48;100075.38;5049346;28;20044;-63
2021/12/09 03:41:33;;;;;;;6.45;2.20;;;;;;;17.41;44.37;100083.78;5033238;28;20572;-62
2021/12/09 03:43:59;;;;;;;6.05;1.80;;;;;;;17.45;44.17;100089.59;5068025;28;20045;-62
2021/12/09 03:46:24;;;;;;;5.88;1.65;;;;;;;17.47;43.83;100090.31;5033024;28;20041;-63
2021/12/09 03:48:50;;;;;;;5.95;1.60;;;;;;;17.42;43.89;100090.72;5050005;28;20068;-62
2021/12/09 03:51:15;;;;;;;6.70;1.60;;;;;;;17.46;44.21;100101.91;5067715;28;20084;-62
2021/12/09 03:53:41;;;;;;;5.05;1.80;;;;;;;17.44;44.12;100098.56;5049888;28;20036;-62
2021/12/09 03:56:06;;;;;;;5.63;1.95;;;;;;;17.41;44.19;100099.69;5049480;28;20070;-64
2021/12/09 03:58:32;;;;;;;6.03;1.92;;;;;;;17.40;43.89;100097.19;5049836;28;20396;-62
2021/12/09 04:00:57;;;;;;;4.80;1.80;;;;;;;17.42;44.14;100104.00;5049527;28;20040;-62
2021/12/09 04:03:23;;;;;;;5.18;1.80;;;;;;;17.41;43.81;100110.28;5067009;28;20492;-62
2021/12/09 04:05:48;;;;;;;7.10;1.90;;;;;;;17.44;44.07;100117.13;5049799;28;20865;-62
2021/12/09 04:08:14;;;;;;;7.10;1.90;;;;;;;17.41;43.83;100114.75;5067199;28;20040;-62
2021/12/09 04:10:39;;;;;;;8.13;2.40;;;;;;;17.37;44.09;100111.59;5067421;28;20040;-62
2021/12/09 04:13:05;;;;;;;4.85;1.63;;;;;;;17.38;43.91;100128.31;5067035;28;20451;-62
2021/12/09 04:15:30;;;;;;;5.97;1.90;;;;;;;17.41;43.96;100120.06;5067497;28;20036;-62
2021/12/09 04:17:56;;;;;;;6.75;2.08;;;;;;;17.37;43.92;100126.66;5043218;28;20041;-62
2021/12/09 04:20:21;;;;;;;3.97;1.50;;;;;;;17.35;43.86;100121.47;5058116;28;20123;-63
2021/12/09 04:22:49;;;;;;;5.25;2.10;;;;;;;17.31;44.01;100122.78;5049759;28;20037;-62
2021/12/09 04:25:19;;;;;;;7.40;1.98;;;;;;;17.30;43.90;100121.13;5067162;28;20056;-63
2021/12/09 04:27:44;;;;;;;5.88;2.00;;;;;;;17.30;44.15;100123.78;5067381;28;20047;-62
2021/12/09 04:30:10;;;;;;;6.78;1.98;;;;;;;17.31;44.14;100120.94;5066498;28;20037;-63
2021/12/09 04:32:35;;;;;;;6.80;1.67;;;;;;;17.25;44.52;100121.53;5067082;28;20484;-62
2021/12/09 04:35:01;;;;;;;5.40;1.77;;;;;;;17.26;44.50;100117.91;5048915;28;20052;-64
2021/12/09 04:37:26;;;;;;;6.90;1.85;;;;;;;17.26;44.17;100117.91;5067535;28;20068;-62
2021/12/09 04:39:52;;;;;;;6.53;1.75;;;;;;;17.21;43.94;100114.88;5051032;28;20040;-62
2021/12/09 04:42:17;;;;;;;6.35;1.80;;;;;;;17.21;44.03;100122.00;5070059;28;20496;-62
2021/12/09 04:44:44;;;;;;;6.35;1.83;;;;;;;17.22;44.03;100116.53;5070839;28;20500;-62
2021/12/09 04:47:09;;;;;;;6.68;2.08;;;;;;;17.23;44.05;100126.16;5052649;28;20059;-62
2021/12/09 04:49:34;;;;;;;6.35;1.73;;;;;;;17.20;43.74;100128.25;5070812;28;20032;-63
2021/12/09 04:52:01;;;;;;;5.53;2.00;;;;;;;17.21;44.36;100132.59;5070365;28;20599;-62
2021/12/09 04:54:26;;;;;;;5.05;1.75;;;;;;;17.20;44.26;100134.41;5052662;28;20112;-62
2021/12/09 04:56:52;;;;;;;6.35;1.80;;;;;;;17.16;44.09;100126.91;5052922;28;20037;-62
2021/12/09 04:59:18;;;;;;;5.32;1.75;;;;;;;17.11;44.39;100132.66;5052327;28;20037;-62
2021/12/09 05:01:48;;;;;;;6.13;1.83;;;;;;;17.09;43.84;100134.59;5070056;28;20070;-62
2021/12/09 05:04:14;;;;;;;6.80;1.80;;;;;;;17.16;44.43;100137.50;5070196;28;20052;-63
2021/12/09 05:06:39;;;;;;;7.35;1.77;;;;;;;17.11;44.19;100145.91;5070448;28;20111;-62
2021/12/09 05:09:10;;;;;;;5.25;1.83;;;;;;;17.07;43.97;100147.16;5070176;28;20484;-62
2021/12/09 05:14:04;;;;;;;7.10;1.88;;;;;;;17.08;43.63;100143.56;5070002;28;20044;-63
2021/12/09 05:16:30;;;;;;;7.15;1.80;;;;;;;17.06;43.69;100148.97;5070297;28;20033;-62
2021/12/09 05:18:59;;;;;;;5.57;1.80;;;;;;;17.07;44.29;100149.81;5037601;28;20037;-62
2021/12/09 05:21:36;;;;;;;6.47;2.00;;;;;;;17.14;44.08;100150.88;5024721;28;20048;-62
2021/12/09 05:24:02;;;;;;;6.13;1.50;;;;;;;17.20;43.88;100150.28;5053072;28;20131;-63
2021/12/09 05:26:32;;;;;;;6.40;1.90;;;;;;;17.25;43.55;100153.34;5052175;28;20445;-63
2021/12/09 05:28:58;;;;;;;4.95;1.80;;;;;;;17.33;43.17;100150.81;5070030;28;20110;-62
2021/12/09 05:34:09;;;;;;;7.78;1.73;;;;;;;17.45;43.95;100139.97;5054420;28;20573;-62
2021/12/09 05:36:34;;;;;;;7.82;2.17;;;;;;;17.58;43.90;100143.13;5051972;28;20093;-61
2021/12/09 05:39:00;;;;;;;9.02;1.98;;;;;;;17.64;44.04;100139.84;5052079;28;20064;-61
2021/12/09 05:41:25;;;;;;;14.02;2.20;;;;;;;17.70;44.52;100136.59;5045885;28;20188;-62
2021/12/09 05:43:51;;;;;;;7.78;1.95;;;;;;;17.72;44.48;100134.66;5042996;28;20037;-62
2021/12/09 05:46:17;;;;;;;9.05;2.00;;;;;;;17.76;44.24;100141.31;5060816;28;20063;-62
2021/12/09 05:48:42;;;;;;;6.85;2.20;;;;;;;17.84;44.13;100147.72;5063708;28;20090;-62
2021/12/09 05:51:07;;;;;;;8.43;1.90;;;;;;;17.92;43.89;100151.28;5037652;28;20399;-62
2021/12/09 05:53:33;;;;;;;6.95;1.80;;;;;;;17.97;43.65;100145.53;5069458;28;20048;-62
2021/12/09 05:55:58;;;;;;;9.88;2.20;;;;;;;18.04;43.40;100154.53;5069258;28;20132;-62
2021/12/09 05:58:24;;;;;;;4.80;1.70;;;;;;;18.11;43.53;100150.28;5051362;28;20072;-62
2021/12/09 06:00:50;;;;;;;6.15;1.60;;;;;;;18.17;43.61;100156.81;5069288;28;20127;-62
2021/12/09 06:03:15;;;;;;;4.60;1.52;;;;;;;18.24;43.61;100153.41;5068346;28;20487;-61
2021/12/09 06:05:41;;;;;;;6.97;1.75;;;;;;;18.31;43.41;100155.44;5051189;28;20041;-62
2021/12/09 06:08:06;;;;;;;5.22;1.55;;;;;;;18.36;43.54;100153.13;5052621;28;20033;-62
2021/12/09 06:10:34;;;;;;;6.97;2.28;;;;;;;18.44;43.79;100156.69;5061934;28;20504;-62
2021/12/09 06:13:00;;;;;;;7.40;1.55;;;;;;;18.51;43.66;100162.22;5068233;28;20033;-62
2021/12/09 06:15:25;;;;;;;5.18;1.67;;;;;;;18.58;43.99;100162.44;5068602;28;20038;-62
2021/12/09 06:17:51;;;;;;;4.93;1.30;;;;;;;18.64;43.77;100175.09;5051492;28;20033;-63
2021/12/09 06:20:16;;;;;;;3.55;1.40;;;;;;;18.66;43.86;100176.59;5068954;28;20119;-62
2021/12/09 06:22:42;;;;;;;6.75;1.45;;;;;;;18.70;44.13;100172.63;5068053;28;20037;-62
2021/12/09 06:25:07;;;;;;;6.18;1.33;;;;;;;18.76;44.20;100175.69;5053565;28;20044;-62
2021/12/09 06:27:33;;;;;;;4.85;1.67;;;;;;;18.83;43.81;100177.56;5024533;28;20086;-62
2021/12/09 06:29:58;;;;;;;5.45;1.65;;;;;;;18.85;44.11;100164.13;5058612;28;20524;-62
2021/12/09 06:32:26;;;;;;;7.22;1.38;;;;;;;18.89;43.68;100170.78;5031363;28;20044;-62
2021/12/09 06:34:53;;;;;;;7.25;1.70;;;;;;;18.93;43.95;100157.03;5066128;28;20131;-62
2021/12/09 06:37:18;;;;;;;4.13;1.55;;;;;;;18.97;44.29;100152.25;5068091;28;20093;-62
2021/12/09 06:39:44;;;;;;;6.18;1.63;;;;;;;18.99;44.01;100154.72;5068612;28;20040;-62
2021/12/09 06:42:10;;;;;;;5.63;1.60;;;;;;;19.01;43.69;100158.06;5067858;28;20163;-62
2021/12/09 06:44:35;;;;;;;6.22;1.70;;;;;;;19.02;43.97;100154.41;5068701;28;20032;-62
2021/12/09 06:47:01;;;;;;;4.53;1.15;;;;;;;19.04;44.33;100155.09;5029914;28;20048;-62
2021/12/09 06:49:26;;;;;;;6.13;1.35;;;;;;;19.05;43.79;100160.22;5051514;28;20045;-62
2021/12/09 06:51:51;;;;;;;4.75;1.30;;;;;;;19.06;43.75;100156.59;5030659;28;20071;-62
2021/12/09 06:54:17;;;;;;;5.15;1.65;;;;;;;19.08;43.79;100154.59;5030265;28;20037;-61
2021/12/09 06:56:42;;;;;;;3.80;1.20;;;;;;;19.11;44.12;100164.09;5034682;28;20495;-62
2021/12/09 06:59:08;;;;;;;7.75;1.90;;;;;;;18.91;44.09;100155.53;5057230;28;20439;-62
2021/12/09 07:01:35;;;;;;;5.55;1.60;;;;;;;19.03;44.35;100167.56;5053168;28;20071;-62
2021/12/09 07:04:01;;;;;;;5.43;1.42;;;;;;;19.10;43.80;100178.38;5056447;28;20546;-62
2021/12/09 07:06:27;;;;;;;9.02;2.10;;;;;;;18.91;42.68;100179.44;5053447;28;20044;-61
2021/12/09 07:08:54;;;;;;;5.40;1.85;;;;;;;18.98;43.83;100167.19;5037000;28;20045;-62
2021/12/09 07:11:19;;;;;;;6.55;1.65;;;;;;;19.09;44.04;100171.41;5062520;28;20083;-62
2021/12/09 07:13:46;;;;;;;7.25;2.25;;;;;;;19.15;43.66;100176.09;5047652;28;20049;-61
2021/12/09 07:16:11;;;;;;;5.90;1.30;;;;;;;19.19;43.81;100175.59;5053667;28;20051;-62
2021/12/09 07:18:38;;;;;;;4.43;1.30;;;;;;;19.22;44.20;100181.59;5053440;28;20041;-62
2021/12/09 07:21:04;;;;;;;5.78;1.88;;;;;;;19.23;43.35;100177.94;5041206;28;20051;-62
2021/12/09 07:23:30;;;;;;;4.55;1.30;;;;;;;19.24;43.92;100174.28;5067431;28;20052;-62
2021/12/09 07:25:55;;;;;;;5.10;1.35;;;;;;;19.25;43.29;100173.31;5066927;28;20124;-62
2021/12/09 07:28:21;;;;;;;5.13;1.67;;;;;;;19.24;43.38;100168.97;5030374;28;20079;-62
2021/12/09 07:30:46;;;;;;;5.38;1.70;;;;;;;19.24;43.67;100171.63;5064847;28;20064;-62
2021/12/09 07:33:11;;;;;;;6.07;1.55;;;;;;;19.26;43.59;100177.63;5061698;28;20048;-62
2021/12/09 07:35:37;;;;;;;5.72;1.38;;;;;;;19.25;43.67;100183.94;5059469;28;20053;-62
2021/12/09 07:38:03;;;;;;;4.63;1.40;;;;;;;19.25;43.40;100175.97;5047563;28;20136;-58
2021/12/09 07:40:29;;;;;;;7.38;1.67;;;;;;;19.19;43.79;100177.44;5052191;28;20051;-60
2021/12/09 07:42:54;;;;;;;5.75;2.00;;;;;;;19.05;43.27;100170.88;5057852;28;20060;-60
2021/12/09 07:45:20;;;;;;;6.63;1.90;;;;;;;18.97;44.18;100189.44;5063829;28;20044;-60
2021/12/09 07:47:45;;;;;;;6.57;1.80;;;;;;;18.94;43.58;100200.41;5066415;28;20068;-60
2021/12/09 07:50:14;;;;;;;5.00;1.50;;;;;;;18.92;44.12;100199.72;5065410;28;20041;-60
2021/12/09 07:52:43;;;;;;;4.97;1.70;;;;;;;18.87;44.02;100202.03;5051873;28;20036;-60
2021/12/09 07:55:10;;;;;;;6.43;1.80;;;;;;;18.88;44.01;100206.34;5057794;28;20051;-60
2021/12/09 07:57:35;;;;;;;6.35;1.70;;;;;;;18.87;44.04;100200.19;5061716;28;20052;-60
2021/12/09 08:00:02;;;;;;;6.50;1.67;;;;;;;18.90;43.97;100204.38;5063308;28;20404;-61
2021/12/09 08:02:27;;;;;;;6.05;1.75;;;;;;;18.88;43.49;100215.13;5046344;28;20048;-59
2021/12/09 08:04:52;;;;;;;5.80;1.95;;;;;;;18.85;43.65;100209.31;5047109;28;20047;-59
2021/12/09 08:07:18;;;;;;;5.90;1.60;;;;;;;18.85;44.32;100217.28;5051942;28;20056;-60
2021/12/09 08:09:43;;;;;;;6.47;1.45;;;;;;;18.86;43.74;100214.44;5066995;28;20052;-60
2021/12/09 08:12:09;;;;;;;6.78;1.55;;;;;;;18.87;43.32;100215.31;5057001;28;20044;-60
2021/12/09 08:14:34;;;;;;;7.95;1.70;;;;;;;18.86;43.71;100218.94;5065687;28;20159;-59
2021/12/09 08:17:23;;;;;;;5.90;1.25;;;;;;;18.86;44.13;100218.94;5062310;28;20477;-59
2021/12/09 08:19:49;;;;;;;6.15;1.60;;;;;;;18.95;43.90;100228.63;5036006;28;20048;-59
2021/12/09 08:22:15;;;;;;;3.72;1.27;;;;;;;18.93;44.34;100227.97;5069672;28;20453;-59
2021/12/09 08:24:41;;;;;;;5.00;1.50;;;;;;;18.89;43.54;100224.78;5070628;28;20435;-59
2021/12/09 08:27:06;;;;;;;5.47;1.88;;;;;;;18.86;44.49;100226.91;5055556;28;20040;-60
2021/12/09 08:29:32;;;;;;;7.43;1.80;;;;;;;18.84;44.33;100224.44;5070342;28;20036;-59
2021/12/09 08:31:57;;;;;;;6.15;1.60;;;;;;;18.84;44.33;100223.59;5063093;28;20029;-60
2021/12/09 08:34:23;;;;;;;6.82;1.85;;;;;;;18.85;43.71;100223.44;5057747;28;20033;-59
2021/12/09 08:36:48;;;;;;;5.25;1.77;;;;;;;18.86;43.42;100221.59;5068297;28;20507;-60
2021/12/09 08:39:14;;;;;;;7.22;2.10;;;;;;;18.87;43.49;100232.09;5067428;28;20053;-60
2021/12/09 08:41:39;;;;;;;5.47;1.50;;;;;;;18.87;43.72;100220.63;5052270;28;20037;-59
2021/12/09 08:44:06;;;;;;;5.60;1.88;;;;;;;18.88;43.84;100222.28;5070003;28;20045;-60
2021/12/09 08:46:32;;;;;;;6.20;1.80;;;;;;;18.87;43.93;100221.47;5069958;28;20032;-60
2021/12/09 08:48:57;;;;;;;6.15;1.83;;;;;;;18.87;43.77;100233.91;5069434;28;20032;-59
2021/12/09 08:51:23;;;;;;;6.10;1.90;;;;;;;18.87;43.77;100236.56;5051639;28;20500;-60
2021/12/09 08:53:48;;;;;;;4.80;1.70;;;;;;;18.89;43.95;100230.09;5063720;28;20377;-59
2021/12/09 08:56:13;;;;;;;4.97;1.55;;;;;;;18.89;44.21;100235.41;5055848;28;20041;-60
2021/12/09 08:58:39;;;;;;;5.53;1.95;;;;;;;18.91;44.00;100227.28;5063851;28;20485;-59
2021/12/09 09:01:04;;;;;;;7.55;2.10;;;;;;;18.92;44.22;100229.78;5066200;28;20136;-60
2021/12/09 09:03:30;;;;;;;7.40;2.28;;;;;;;18.89;43.42;100234.56;5069748;28;20093;-60
2021/12/09 09:05:56;;;;;;;8.18;2.10;;;;;;;18.91;44.32;100240.56;5051906;28;20048;-60
2021/12/09 09:08:21;;;;;;;4.97;1.50;;;;;;;18.91;43.54;100233.44;5068813;28;20549;-59
2021/12/09 09:10:46;;;;;;;7.45;2.08;;;;;;;18.92;43.50;100231.59;5051207;28;20040;-59
2021/12/09 09:13:13;;;;;;;6.10;1.83;;;;;;;18.94;44.08;100235.78;5062723;28;20037;-60
2021/12/09 09:15:39;;;;;;;7.05;1.80;;;;;;;18.96;43.53;100230.31;5060273;28;20040;-59
2021/12/09 09:18:05;;;;;;;7.43;2.38;;;;;;;18.98;44.06;100238.94;5035853;28;20090;-60
2021/12/09 09:20:31;;;;;;;7.30;1.77;;;;;;;19.01;43.91;100238.66;5049994;28;20029;-59
2021/12/09 09:22:57;;;;;;;6.07;1.80;;;;;;;18.91;43.57;100238.75;5056801;28;20199;-60
2021/12/09 09:25:29;;;;;;;7.40;2.03;;;;;;;18.89;43.50;100251.34;5049237;28;20560;-60
2021/12/09 09:27:54;;;;;;;5.30;1.65;;;;;;;18.90;43.62;100242.41;5048838;28;20029;-59
2021/12/09 09:30:20;;;;;;;6.50;1.80;;;;;;;18.90;43.63;100244.25;5067316;28;20033;-59
2021/12/09 09:32:46;;;;;;;6.50;2.03;;;;;;;18.94;43.93;100242.94;5067161;28;20047;-59
2021/12/09 09:35:11;;;;;;;3.78;1.50;;;;;;;18.93;43.96;100243.94;5051690;28;20045;-60
2021/12/09 09:37:37;;;;;;;5.97;2.13;;;;;;;18.93;43.42;100242.09;5059433;28;20040;-60
2021/12/09 09:40:06;;;;;;;7.07;1.85;;;;;;;18.95;44.69;100244.59;5068129;28;20064;-60
2021/12/09 09:44:59;;;;;;;5.72;1.65;;;;;;;18.95;44.32;100239.28;5050235;28;20047;-59
2021/12/09 09:47:26;;;;;;;7.28;1.90;;;;;;;18.95;43.73;100234.78;5065417;28;20048;-60
2021/12/09 09:49:52;;;;;;;4.88;1.90;;;;;;;18.92;43.79;100234.25;5059833;28;20040;-60
2021/12/09 09:52:17;;;;;;;5.15;1.95;;;;;;;18.93;43.81;100231.47;5055780;28;20045;-60
2021/12/09 09:54:43;;;;;;;8.68;1.55;;;;;;;19.03;43.79;100242.00;5059121;28;20093;-60
2021/12/09 09:57:08;;;;;;;6.18;2.03;;;;;;;19.05;43.84;100244.47;5064023;28;20036;-60
2021/12/09 09:59:35;;;;;;;5.55;1.70;;;;;;;19.01;44.03;100243.97;5058722;28;20580;-60
2021/12/09 10:02:00;;;;;;;6.28;1.92;;;;;;;18.98;44.32;100248.75;5050442;28;20041;-60
2021/12/09 10:04:48;;;;;;;5.90;1.80;;;;;;;18.97;44.09;100249.75;5057608;28;20940;-60
2021/12/09 10:07:21;;;;;;;6.63;2.20;;;;;;;18.92;44.60;100261.66;5050658;28;20040;-60
2021/12/09 10:09:47;;;;;;;6.10;1.92;;;;;;;18.95;43.87;100263.19;5050222;28;20043;-60
2021/12/09 10:12:12;;;;;;;6.95;1.80;;;;;;;18.95;44.58;100249.91;5050106;28;20041;-60
2021/12/09 10:14:37;;;;;;;5.43;1.98;;;;;;;18.97;43.77;100247.09;5068391;28;20124;-59
2021/12/09 10:17:14;;;;;;;5.80;1.83;;;;;;;18.97;44.35;100255.91;5060101;28;20131;-60
2021/12/09 10:19:41;;;;;;;6.82;1.90;;;;;;;18.95;44.51;100248.06;5039356;28;20051;-59
2021/12/09 10:22:11;;;;;;;5.85;1.88;;;;;;;18.98;44.64;100249.59;5045195;28;20080;-60
2021/12/09 10:24:37;;;;;;;5.75;1.77;;;;;;;18.94;43.61;100240.28;5067858;28;20753;-60
2021/12/09 10:27:04;;;;;;;6.93;2.20;;;;;;;18.95;44.69;100249.91;5044599;28;20074;-60
2021/12/09 10:29:34;;;;;;;4.20;1.70;;;;;;;18.93;43.89;100246.59;5032797;28;20187;-60
2021/12/09 10:32:05;;;;;;;5.93;1.80;;;;;;;18.95;43.71;100248.06;5013582;28;20033;-60
2021/12/09 10:34:45;;;;;;;6.82;2.20;;;;;;;18.96;44.24;100251.59;5047998;28;20106;-60
2021/12/09 10:37:16;;;;;;;6.03;1.85;;;;;;;18.98;43.93;100238.13;5041208;28;20044;-60
2021/12/09 10:40:08;;;;;;;6.25;1.88;;;;;;;18.96;44.80;100235.63;5055452;28;20755;-60
2021/12/09 10:42:43;;;;;;;7.05;1.98;;;;;;;18.97;44.63;100245.28;5048603;28;20041;-60
2021/12/09 10:45:15;;;;;;;5.60;2.17;;;;;;;18.93;44.29;100234.13;5047688;28;20064;-60
2021/12/09 10:50:20;;;;;;;5.95;2.00;;;;;;;18.93;44.35;100230.63;5066699;28;20040;-60
2021/12/09 10:52:52;;;;;;;5.10;2.05;;;;;;;18.94;44.03;100226.97;5067577;28;20041;-60
2021/12/09 10:55:21;;;;;;;5.35;2.05;;;;;;;18.97;44.49;100231.97;5066984;28;20045;-60
2021/12/09 10:57:58;;;;;;;5.35;1.80;;;;;;;18.95;44.68;100220.66;5055504;28;20052;-59
2021/12/09 11:00:23;;;;;;;4.40;1.67;;;;;;;19.00;44.47;100220.22;5051264;28;20465;-60
2021/12/09 11:03:03;;;;;;;5.03;1.70;;;;;;;18.95;44.32;100215.34;5047824;28;20492;-59
2021/12/09 11:05:29;;;;;;;6.53;2.15;;;;;;;18.94;44.63;100213.69;5041405;28;20063;-59
2021/12/09 11:07:54;;;;;;;8.35;2.80;;;;;;;18.75;44.45;100220.03;5060813;28;20071;-60
2021/12/09 11:10:22;;;;;;;13.00;3.90;;;;;;;18.22;44.60;100221.72;5021742;28;20033;-59
2021/12/09 11:12:49;;;;;;;9.85;2.80;;;;;;;18.53;44.78;100213.38;5058464;28;20465;-60
2021/12/09 11:15:16;;;;;;;5.40;2.20;;;;;;;18.71;44.89;100216.84;5052614;28;20449;-60
2021/12/09 11:17:42;;;;;;;5.75;2.08;;;;;;;18.82;44.53;100215.75;5057166;28;20052;-60
2021/12/09 11:20:08;;;;;;;5.97;2.15;;;;;;;18.90;45.04;100221.16;5052983;28;20059;-60
2021/12/09 11:22:37;;;;;;;8.25;2.90;;;;;;;18.97;44.85;100221.34;5049560;28;20468;-60
2021/12/09 11:25:05;;;;;;;6.38;2.22;;;;;;;19.00;44.47;100214.88;5066088;28;20060;-60
2021/12/09 11:27:31;;;;;;;6.13;2.10;;;;;;;19.01;44.70;100214.72;5051374;28;20253;-60
2021/12/09 11:30:08;;;;;;;7.72;2.60;;;;;;;19.02;44.61;100207.56;5060458;28;20659;-60
2021/12/09 11:35:26;;;;;;;9.30;2.70;;;;;;;18.96;44.69;100203.75;5066473;28;20059;-61